Time;durP1;ratioP1;P1;durP2;ratioP2;P2;SDS_P1;SDS_P2;PMS_P1;PMS_P2;Temp;Humidity;BMP_temperature;BMP_pressure;BME280_temperature;BME280_humidity;BME280_pressure;Samples;Min_cycle;Max_cycle;Signal;HPM_P1;HPM_P2
2022/03/23 00:00:59;;;;;;;0.37;0.30;;;18.40;99.90;;;;;;6209284;23;20172;-92
2022/03/23 00:03:31;;;;;;;0.20;0.20;;;18.50;99.90;;;;;;6209654;23;20200;-92
2022/03/23 00:06:06;;;;;;;0.50;0.30;;;18.50;99.90;;;;;;6205233;23;20288;-92
2022/03/23 00:08:38;;;;;;;1.10;0.50;;;18.50;99.90;;;;;;6202316;23;20234;-91
2022/03/23 00:11:10;;;;;;;0.50;0.37;;;18.60;99.90;;;;;;6205994;23;20173;-92
2022/03/23 00:13:41;;;;;;;1.00;0.30;;;18.40;99.90;;;;;;6202197;23;20169;-91
2022/03/23 00:16:14;;;;;;;0.30;0.30;;;18.40;99.90;;;;;;6194726;23;20523;-93
2022/03/23 00:18:45;;;;;;;0.90;0.50;;;18.40;99.90;;;;;;6171165;23;20196;-92
2022/03/23 00:21:18;;;;;;;0.70;0.43;;;18.70;99.90;;;;;;6177420;23;20174;-92
2022/03/23 00:23:49;;;;;;;1.17;0.60;;;18.70;99.90;;;;;;6192768;23;20592;-91
2022/03/23 00:26:21;;;;;;;0.30;0.30;;;18.60;99.90;;;;;;6191227;23;20192;-90
2022/03/23 00:28:52;;;;;;;1.83;0.53;;;18.50;99.90;;;;;;6189557;23;20635;-92
2022/03/23 00:31:25;;;;;;;0.63;0.47;;;18.40;99.90;;;;;;6190577;23;20667;-91
2022/03/23 00:33:56;;;;;;;0.73;0.43;;;18.40;99.90;;;;;;6190145;23;20224;-92
2022/03/23 00:36:27;;;;;;;2.30;0.60;;;18.30;99.90;;;;;;6189639;23;20612;-92
2022/03/23 00:38:58;;;;;;;1.57;0.60;;;18.30;99.90;;;;;;6193462;23;20188;-91
2022/03/23 00:41:29;;;;;;;0.80;0.57;;;18.30;99.90;;;;;;6197772;23;20180;-92
2022/03/23 00:44:01;;;;;;;0.73;0.50;;;18.30;99.90;;;;;;6191779;23;20169;-91
2022/03/23 00:46:33;;;;;;;1.50;0.90;;;18.40;99.90;;;;;;6166778;23;20511;-92
2022/03/23 00:49:05;;;;;;;0.90;0.60;;;18.60;99.90;;;;;;6165339;23;20181;-92
2022/03/23 00:51:35;;;;;;;1.10;0.57;;;18.50;99.90;;;;;;6194197;23;20169;-92
2022/03/23 00:54:09;;;;;;;1.70;0.80;;;18.40;99.90;;;;;;6192170;23;20200;-92
2022/03/23 00:56:41;;;;;;;0.70;0.60;;;18.40;99.90;;;;;;6192642;23;20183;-91
2022/03/23 00:59:13;;;;;;;1.00;0.70;;;18.30;99.90;;;;;;6165372;23;20177;-91
2022/03/23 01:01:45;;;;;;;2.07;0.80;;;18.30;99.90;;;;;;6192209;23;20176;-91
2022/03/23 01:04:16;;;;;;;1.87;0.87;;;18.20;99.90;;;;;;6193535;23;20177;-91
2022/03/23 01:06:52;;;;;;;4.07;0.80;;;18.20;99.90;;;;;;6194103;23;20189;-92
2022/03/23 01:09:23;;;;;;;2.40;1.13;;;18.20;99.90;;;;;;6192461;23;20214;-92
2022/03/23 01:11:56;;;;;;;0.83;0.50;;;18.10;99.90;;;;;;6195114;23;20268;-91
2022/03/23 01:14:28;;;;;;;1.17;0.60;;;17.90;99.90;;;;;;6193431;23;20171;-91
2022/03/23 01:17:01;;;;;;;0.60;0.60;;;17.80;99.90;;;;;;6209821;23;20243;-94
2022/03/23 01:19:32;;;;;;;1.90;0.80;;;17.70;99.90;;;;;;6185582;23;20205;-92
2022/03/23 01:22:04;;;;;;;0.67;0.50;;;17.50;99.90;;;;;;6204884;23;20173;-92
2022/03/23 01:24:35;;;;;;;1.80;0.80;;;17.40;99.90;;;;;;6202843;23;20177;-91
2022/03/23 01:27:07;;;;;;;1.00;0.57;;;17.30;99.90;;;;;;6204225;23;20197;-91
2022/03/23 01:29:38;;;;;;;0.63;0.40;;;17.30;99.90;;;;;;6181224;23;20185;-89
2022/03/23 01:32:12;;;;;;;1.17;0.70;;;17.30;99.90;;;;;;6209778;23;20259;-91
2022/03/23 01:34:43;;;;;;;1.60;0.57;;;17.20;99.90;;;;;;6208874;23;20157;-91
2022/03/23 01:37:14;;;;;;;0.87;0.70;;;17.10;99.90;;;;;;6205228;23;20162;-89
2022/03/23 01:39:45;;;;;;;1.70;0.60;;;17.10;99.90;;;;;;6200169;23;20228;-92
2022/03/23 01:42:16;;;;;;;0.93;0.40;;;17.10;99.90;;;;;;6197874;23;20181;-90
2022/03/23 01:44:47;;;;;;;0.50;0.40;;;17.00;99.90;;;;;;6194745;23;20193;-91
2022/03/23 01:47:22;;;;;;;1.43;0.70;;;16.90;99.90;;;;;;6200197;23;20197;-91
2022/03/23 01:49:57;;;;;;;1.00;0.80;;;16.70;99.90;;;;;;6196948;23;20169;-92
2022/03/23 01:55:14;;;;;;;0.50;0.50;;;16.40;99.90;;;;;;6209275;22;20307;-91
2022/03/23 02:00:21;;;;;;;0.83;0.50;;;16.20;99.90;;;;;;6298077;22;20208;-91
2022/03/23 02:02:57;;;;;;;1.23;0.43;;;16.10;99.90;;;;;;6300707;22;20159;-92
2022/03/23 02:05:29;;;;;;;0.50;0.50;;;16.00;99.90;;;;;;6278932;22;20254;-91
2022/03/23 02:08:01;;;;;;;1.87;0.60;;;15.90;99.90;;;;;;6303106;22;20187;-92
2022/03/23 02:10:33;;;;;;;1.27;0.60;;;15.80;99.90;;;;;;6304849;22;20159;-92
2022/03/23 02:13:06;;;;;;;0.57;0.50;;;15.70;99.90;;;;;;6302917;22;20589;-90
2022/03/23 02:15:39;;;;;;;0.60;0.40;;;15.50;99.90;;;;;;6303733;22;20178;-92
2022/03/23 02:18:20;;;;;;;5.20;2.27;;;15.40;99.90;;;;;;6297918;22;20190;-92
2022/03/23 02:20:52;;;;;;;4.67;2.23;;;15.30;99.90;;;;;;6296886;22;20170;-92
2022/03/23 02:23:25;;;;;;;2.83;1.50;;;15.20;99.90;;;;;;6286193;22;20178;-91
2022/03/23 02:26:03;;;;;;;1.93;0.90;;;15.10;99.90;;;;;;6288812;22;20178;-91
2022/03/23 02:28:35;;;;;;;3.23;1.03;;;15.00;99.90;;;;;;6295413;22;20171;-91
2022/03/23 02:31:08;;;;;;;8.70;3.07;;;14.90;99.90;;;;;;6297700;22;20171;-91
2022/03/23 02:33:40;;;;;;;5.07;1.80;;;14.80;99.90;;;;;;6302329;22;20201;-91
2022/03/23 02:36:13;;;;;;;3.27;1.70;;;14.70;99.90;;;;;;6304167;22;20251;-91
2022/03/23 02:38:47;;;;;;;3.40;1.70;;;14.60;99.90;;;;;;6278656;22;20159;-90
2022/03/23 02:41:20;;;;;;;4.40;3.70;;;14.50;99.90;;;;;;6303922;22;20167;-89
2022/03/23 02:46:35;;;;;;;4.97;4.47;;;14.40;99.90;;;;;;6211938;23;20193;-93
2022/03/23 02:49:07;;;;;;;7.03;3.27;;;14.30;99.90;;;;;;6211804;23;20153;-92
2022/03/23 02:51:43;;;;;;;4.00;3.37;;;14.20;99.90;;;;;;6183597;23;20177;-92
2022/03/23 03:03:35;;;;;;;4.87;2.73;;;13.90;99.90;;;;;;6164186;22;20591;-92
2022/03/23 03:06:08;;;;;;;5.10;2.10;;;13.80;99.90;;;;;;6212780;23;20447;-91
2022/03/23 03:08:56;;;;;;;2.80;2.60;;;13.70;99.90;;;;;;6181237;23;20196;-91
2022/03/23 03:22:11;;;;;;;0.80;0.80;;;13.40;99.90;;;;;;6211510;22;20239;-90
2022/03/23 03:24:48;;;;;;;1.83;1.30;;;13.30;99.90;;;;;;6212636;23;20177;-91
2022/03/23 03:35:37;;;;;;;2.63;1.30;;;13.20;99.90;;;;;;6210225;22;20278;-86
2022/03/23 03:38:11;;;;;;;1.53;1.43;;;13.10;99.90;;;;;;6186569;23;20162;-92
2022/03/23 03:49:04;;;;;;;7.93;7.10;;;13.00;99.90;;;;;;6295180;22;20178;-91
2022/03/23 03:51:36;;;;;;;8.57;7.40;;;12.90;99.90;;;;;;6296820;22;20171;-92
2022/03/23 03:54:12;;;;;;;9.67;8.67;;;12.80;99.90;;;;;;6295205;22;20167;-92
2022/03/23 03:56:44;;;;;;;13.47;11.87;;;12.80;99.90;;;;;;6297813;22;20183;-91
2022/03/23 03:59:16;;;;;;;21.83;18.00;;;12.70;99.90;;;;;;6297435;22;20206;-91
2022/03/23 04:01:50;;;;;;;19.37;17.17;;;12.70;99.90;;;;;;6268027;22;20178;-92
2022/03/23 04:07:07;;;;;;;11.63;9.90;;;12.60;99.90;;;;;;6294773;22;20206;-92
2022/03/23 04:09:43;;;;;;;12.93;11.50;;;12.60;99.90;;;;;;6266792;22;20254;-91
2022/03/23 04:12:15;;;;;;;14.50;12.80;;;12.50;99.90;;;;;;6295070;22;20181;-91
2022/03/23 04:14:46;;;;;;;15.00;13.40;;;12.50;99.90;;;;;;6268799;22;20229;-92
2022/03/23 04:17:17;;;;;;;13.23;11.83;;;12.40;99.90;;;;;;6296784;22;20187;-92
2022/03/23 04:19:49;;;;;;;11.97;10.60;;;12.40;99.90;;;;;;6301891;22;20156;-92
2022/03/23 04:22:21;;;;;;;10.17;8.33;;;12.30;99.90;;;;;;6297759;22;20156;-92
2022/03/23 04:24:54;;;;;;;8.27;7.47;;;12.30;99.90;;;;;;6302489;22;20152;-92
2022/03/23 04:27:25;;;;;;;6.80;6.07;;;12.20;99.90;;;;;;6302157;22;20194;-92
2022/03/23 04:29:58;;;;;;;5.70;5.20;;;12.20;99.90;;;;;;6303562;22;20155;-89
2022/03/23 04:32:30;;;;;;;5.03;4.53;;;12.20;99.90;;;;;;6304313;22;20179;-92
2022/03/23 04:35:03;;;;;;;3.53;3.07;;;12.10;99.90;;;;;;6304185;22;20194;-91
2022/03/23 04:37:36;;;;;;;2.53;2.30;;;12.10;99.90;;;;;;6277472;22;20193;-91
2022/03/23 04:40:12;;;;;;;3.97;3.40;;;12.10;99.90;;;;;;6304315;22;20163;-92
2022/03/23 04:42:48;;;;;;;12.50;8.70;;;12.10;99.90;;;;;;6303277;22;20174;-90
2022/03/23 04:45:21;;;;;;;11.77;8.80;;;12.00;99.90;;;;;;6303642;22;20171;-92
2022/03/23 04:47:52;;;;;;;6.27;5.13;;;12.00;99.90;;;;;;6233668;22;20232;-92
2022/03/23 04:50:24;;;;;;;8.57;6.33;;;12.00;99.90;;;;;;6210334;23;20163;-92
2022/03/23 04:52:55;;;;;;;7.40;6.67;;;12.00;99.90;;;;;;6209739;23;20165;-92
2022/03/23 04:55:28;;;;;;;10.07;8.37;;;12.00;99.90;;;;;;6184630;23;20192;-89
2022/03/23 04:58:00;;;;;;;9.07;7.50;;;11.90;99.90;;;;;;6208801;23;20213;-92
2022/03/23 05:00:33;;;;;;;6.80;6.10;;;11.90;99.90;;;;;;6207745;23;20266;-91
2022/03/23 05:03:05;;;;;;;6.47;5.87;;;11.90;99.90;;;;;;6211439;23;20169;-91
2022/03/23 05:05:38;;;;;;;6.80;6.10;;;11.90;99.90;;;;;;6207945;23;20480;-91
2022/03/23 05:08:09;;;;;;;10.80;9.70;;;11.80;99.90;;;;;;6168081;23;20230;-91
2022/03/23 05:10:43;;;;;;;14.13;11.00;;;11.90;99.90;;;;;;6201634;22;20212;-91
2022/03/23 05:13:15;;;;;;;11.70;9.43;;;11.80;99.90;;;;;;6198525;22;20207;-93
2022/03/23 05:15:47;;;;;;;7.27;6.50;;;11.80;99.90;;;;;;6198795;23;20184;-91
2022/03/23 05:18:18;;;;;;;6.37;4.33;;;11.80;99.90;;;;;;6195699;23;20177;-91
2022/03/23 05:20:49;;;;;;;3.97;2.73;;;11.70;99.90;;;;;;6195727;23;20609;-91
2022/03/23 05:23:20;;;;;;;4.00;2.73;;;11.70;99.90;;;;;;6194317;23;20177;-91
2022/03/23 05:25:53;;;;;;;2.90;2.00;;;11.60;99.90;;;;;;6193835;23;20173;-91
2022/03/23 05:28:24;;;;;;;2.63;1.60;;;11.60;99.90;;;;;;6172444;23;20204;-92
2022/03/23 05:30:57;;;;;;;2.80;1.27;;;11.60;99.90;;;;;;6205512;23;20169;-91
2022/03/23 05:33:28;;;;;;;3.10;1.20;;;11.60;99.90;;;;;;6206037;23;20164;-91
2022/03/23 05:36:00;;;;;;;2.50;1.00;;;11.60;99.90;;;;;;6182837;23;20169;-91
2022/03/23 05:38:31;;;;;;;2.70;1.00;;;11.50;99.90;;;;;;6204400;23;20176;-88
2022/03/23 05:41:05;;;;;;;1.47;1.03;;;11.50;99.90;;;;;;6213353;23;20188;-92
2022/03/23 05:43:35;;;;;;;2.93;1.10;;;11.50;99.90;;;;;;6213450;23;20168;-92
2022/03/23 05:46:06;;;;;;;2.43;1.90;;;11.40;99.90;;;;;;6213055;23;20255;-92
2022/03/23 05:48:38;;;;;;;4.27;3.33;;;11.40;99.90;;;;;;6211313;23;20185;-96
2022/03/23 05:51:09;;;;;;;4.23;3.17;;;11.40;99.90;;;;;;6211104;23;20181;-95
2022/03/23 05:53:42;;;;;;;5.87;5.27;;;11.40;99.90;;;;;;6198582;23;20180;-95
2022/03/23 05:56:15;;;;;;;4.17;3.57;;;11.40;99.90;;;;;;6172420;23;20192;-95
2022/03/23 05:58:47;;;;;;;3.60;2.33;;;11.30;99.90;;;;;;6195489;23;20192;-96
2022/03/23 06:01:18;;;;;;;3.80;2.47;;;11.30;99.90;;;;;;6195599;23;20596;-95
2022/03/23 06:03:51;;;;;;;3.30;2.27;;;11.30;99.90;;;;;;6195392;23;20227;-95
2022/03/23 06:06:22;;;;;;;4.23;2.13;;;11.30;99.90;;;;;;6196841;23;20181;-96
2022/03/23 06:08:53;;;;;;;2.30;2.10;;;11.20;99.90;;;;;;6196702;23;20236;-96
2022/03/23 06:11:27;;;;;;;1.60;1.50;;;11.20;99.90;;;;;;6196551;23;20188;-96
2022/03/23 06:13:59;;;;;;;3.40;1.67;;;11.10;99.90;;;;;;6196491;23;20189;-93
2022/03/23 06:16:31;;;;;;;2.27;1.67;;;11.10;99.90;;;;;;6202745;23;20177;-95
2022/03/23 06:19:04;;;;;;;2.40;2.20;;;11.10;99.90;;;;;;6209696;23;20549;-96
2022/03/23 06:21:36;;;;;;;3.20;2.03;;;11.10;99.90;;;;;;6212795;23;20238;-96
2022/03/23 06:24:08;;;;;;;3.77;2.10;;;11.00;99.90;;;;;;6211491;23;20177;-96
2022/03/23 06:26:41;;;;;;;1.90;1.80;;;11.00;99.90;;;;;;6209690;23;20220;-95
2022/03/23 06:29:12;;;;;;;2.27;1.60;;;11.00;99.90;;;;;;6195108;23;20209;-96
2022/03/23 06:31:44;;;;;;;3.27;1.80;;;11.00;99.90;;;;;;6199187;23;20185;-95
2022/03/23 06:34:16;;;;;;;2.30;1.50;;;11.00;99.90;;;;;;6196897;23;20273;-96
2022/03/23 06:36:48;;;;;;;1.83;1.63;;;11.00;99.90;;;;;;6200888;23;20177;-93
2022/03/23 06:39:21;;;;;;;3.33;1.80;;;11.00;99.90;;;;;;6202295;23;20165;-94
2022/03/23 06:41:54;;;;;;;7.47;6.53;;;10.90;99.90;;;;;;6201029;23;20177;-96
2022/03/23 06:44:26;;;;;;;6.03;5.43;;;10.90;99.90;;;;;;6206343;23;20169;-96
2022/03/23 06:46:57;;;;;;;4.63;4.10;;;10.90;99.90;;;;;;6211821;23;20188;-95
2022/03/23 06:49:29;;;;;;;11.40;4.03;;;10.90;99.90;;;;;;6211066;23;20195;-95
2022/03/23 06:52:00;;;;;;;5.07;3.70;;;10.80;99.90;;;;;;6180934;23;20176;-96
2022/03/23 06:54:32;;;;;;;5.30;4.77;;;10.80;99.90;;;;;;6202987;23;20281;-96
2022/03/23 06:57:06;;;;;;;12.27;9.90;;;10.70;99.90;;;;;;6199806;23;20180;-96
2022/03/23 06:59:39;;;;;;;11.83;10.17;;;10.70;99.90;;;;;;6198478;23;20179;-96
2022/03/23 07:02:10;;;;;;;12.50;10.40;;;10.60;99.90;;;;;;6197025;23;20181;-96
2022/03/23 07:04:42;;;;;;;9.63;8.20;;;10.60;99.90;;;;;;6194542;23;20228;-96
2022/03/23 07:07:13;;;;;;;12.47;9.60;;;10.60;99.90;;;;;;6194563;23;20178;-96
2022/03/23 07:09:43;;;;;;;14.87;10.30;;;10.60;99.90;;;;;;6194654;23;20221;-96
2022/03/23 07:12:17;;;;;;;14.10;9.63;;;10.50;99.90;;;;;;6195835;23;20189;-95
2022/03/23 07:14:48;;;;;;;12.30;7.43;;;10.50;99.90;;;;;;6196372;23;20183;-96
2022/03/23 07:17:20;;;;;;;24.53;17.30;;;10.40;99.90;;;;;;6195912;23;20454;-96
2022/03/23 07:19:55;;;;;;;25.53;16.53;;;10.40;99.90;;;;;;6195056;23;20683;-96
2022/03/23 07:22:27;;;;;;;23.27;15.87;;;10.40;99.90;;;;;;6198973;23;20184;-96
2022/03/23 07:24:58;;;;;;;18.03;11.33;;;10.30;99.90;;;;;;6183660;23;20181;-94
2022/03/23 07:27:32;;;;;;;16.17;11.07;;;10.30;99.90;;;;;;6209137;22;20193;-95
2022/03/23 07:30:05;;;;;;;10.10;7.87;;;10.30;99.90;;;;;;6212168;23;20192;-96
2022/03/23 07:32:38;;;;;;;6.37;5.03;;;10.30;99.90;;;;;;6205186;23;20184;-95
2022/03/23 07:35:13;;;;;;;3.47;2.63;;;10.30;99.90;;;;;;6173759;23;20177;-95
2022/03/23 07:37:45;;;;;;;7.77;2.90;;;10.20;99.90;;;;;;6202916;23;20180;-95
2022/03/23 07:40:16;;;;;;;2.60;1.30;;;10.20;99.90;;;;;;6194849;22;20192;-95
2022/03/23 07:42:54;;;;;;;1.93;1.73;;;10.30;99.90;;;;;;6186455;23;20173;-96
2022/03/23 07:45:26;;;;;;;1.40;1.30;;;10.20;99.90;;;;;;6175158;23;20216;-96
2022/03/23 07:47:58;;;;;;;2.80;1.30;;;10.20;99.90;;;;;;6169962;23;20232;-95
2022/03/23 07:50:30;;;;;;;2.20;2.00;;;10.20;99.90;;;;;;6195627;23;20200;-96
2022/03/23 07:53:01;;;;;;;2.70;1.23;;;10.20;99.90;;;;;;6196570;23;20608;-96
2022/03/23 07:55:33;;;;;;;1.60;1.47;;;10.20;99.90;;;;;;6208826;23;20165;-94
2022/03/23 07:58:07;;;;;;;2.00;1.40;;;10.20;99.90;;;;;;6211094;23;20161;-95
2022/03/23 08:00:41;;;;;;;0.90;0.80;;;10.20;99.90;;;;;;6206185;23;20177;-95
2022/03/23 08:03:13;;;;;;;2.03;1.20;;;10.20;99.90;;;;;;6195862;23;20172;-95
2022/03/23 08:05:45;;;;;;;0.90;0.90;;;10.20;99.90;;;;;;6195167;23;20180;-95
2022/03/23 08:08:16;;;;;;;1.20;0.90;;;10.20;99.90;;;;;;6197543;23;20181;-95
2022/03/23 08:10:48;;;;;;;5.00;0.93;;;10.10;99.90;;;;;;6195639;23;20266;-95
2022/03/23 08:13:24;;;;;;;2.33;0.90;;;10.10;99.90;;;;;;6207173;23;20177;-96
2022/03/23 08:15:55;;;;;;;4.60;1.13;;;10.10;99.90;;;;;;6202054;23;20169;-96
2022/03/23 08:18:27;;;;;;;0.83;0.83;;;10.00;99.90;;;;;;6204423;23;20236;-96
2022/03/23 08:20:59;;;;;;;1.47;1.10;;;10.00;99.90;;;;;;6197411;23;20177;-95
2022/03/23 08:23:31;;;;;;;1.23;1.00;;;10.00;99.90;;;;;;6194867;23;20181;-96
2022/03/23 08:26:09;;;;;;;2.80;1.63;;;10.00;99.90;;;;;;6195532;23;20177;-96
2022/03/23 08:28:42;;;;;;;2.43;1.10;;;10.00;99.90;;;;;;6193089;23;20177;-96
2022/03/23 08:31:14;;;;;;;1.73;1.23;;;10.00;99.90;;;;;;6193926;23;20572;-95
2022/03/23 08:33:46;;;;;;;0.90;0.90;;;10.00;99.90;;;;;;6194637;23;20196;-95
2022/03/23 08:36:18;;;;;;;1.13;0.70;;;10.00;99.90;;;;;;6194059;23;20223;-94
2022/03/23 08:38:49;;;;;;;0.80;0.80;;;10.00;99.90;;;;;;6193577;23;20177;-95
2022/03/23 08:41:22;;;;;;;1.50;0.93;;;9.90;99.90;;;;;;6167953;23;20189;-95
2022/03/23 08:43:57;;;;;;;1.23;1.10;;;9.90;99.90;;;;;;6193973;23;20192;-95
2022/03/23 08:46:29;;;;;;;1.20;1.10;;;9.90;99.90;;;;;;6194549;23;20284;-96
2022/03/23 08:49:01;;;;;;;8.13;1.50;;;9.90;99.90;;;;;;6192529;23;20181;-95
2022/03/23 08:51:33;;;;;;;1.43;1.00;;;9.90;99.90;;;;;;6168773;23;20219;-96
2022/03/23 08:54:05;;;;;;;1.80;1.20;;;9.90;99.90;;;;;;6194828;23;20189;-96
2022/03/23 08:56:38;;;;;;;2.00;1.20;;;9.90;99.90;;;;;;6193942;23;20639;-96
2022/03/23 08:59:13;;;;;;;4.20;1.57;;;9.90;99.90;;;;;;6193005;23;20214;-95
2022/03/23 09:01:44;;;;;;;3.93;1.50;;;9.80;99.90;;;;;;6168222;23;20204;-96
2022/03/23 09:04:17;;;;;;;1.43;1.20;;;9.80;99.90;;;;;;6199122;23;20248;-95
2022/03/23 09:06:49;;;;;;;2.33;1.27;;;9.70;99.90;;;;;;6168414;23;20177;-96
2022/03/23 09:09:21;;;;;;;1.90;1.40;;;9.70;99.90;;;;;;6195011;23;20245;-96
2022/03/23 09:11:57;;;;;;;1.83;1.07;;;9.70;99.90;;;;;;6285700;22;20179;-96
2022/03/23 09:14:39;;;;;;;2.57;1.30;;;9.70;99.90;;;;;;6262013;22;20515;-96
2022/03/23 09:17:10;;;;;;;1.40;1.10;;;9.60;99.90;;;;;;6283408;22;20613;-96
2022/03/23 09:19:42;;;;;;;1.53;1.00;;;9.60;99.90;;;;;;6258068;22;20179;-95
2022/03/23 09:22:14;;;;;;;1.40;0.83;;;9.60;99.90;;;;;;6284476;22;20175;-93
2022/03/23 09:24:45;;;;;;;1.80;1.10;;;9.60;99.90;;;;;;6284302;22;20606;-95
2022/03/23 09:27:16;;;;;;;1.77;1.40;;;9.60;99.90;;;;;;6256935;22;20178;-95
2022/03/23 09:29:54;;;;;;;1.80;1.03;;;9.60;99.90;;;;;;6284793;22;20183;-96
2022/03/23 09:32:25;;;;;;;2.67;1.43;;;9.60;99.90;;;;;;6287831;22;20210;-95
2022/03/23 09:34:56;;;;;;;3.13;1.60;;;9.60;99.90;;;;;;6259673;22;20190;-96
2022/03/23 09:40:18;;;;;;;2.53;1.87;;;9.50;99.90;;;;;;6284003;22;20611;-95
2022/03/23 09:42:53;;;;;;;2.10;1.73;;;9.50;99.90;;;;;;6288345;22;20174;-94
2022/03/23 09:45:46;;;;;;;2.77;1.93;;;9.40;99.90;;;;;;6287671;22;20172;-94
2022/03/23 09:48:21;;;;;;;2.40;2.20;;;9.40;99.90;;;;;;6258938;22;20179;-94
2022/03/23 09:50:55;;;;;;;3.43;2.00;;;9.40;99.90;;;;;;6246148;22;20223;-94
2022/03/23 09:53:26;;;;;;;2.50;1.83;;;9.40;99.90;;;;;;6210694;23;20210;-96
2022/03/23 09:55:58;;;;;;;2.30;1.80;;;9.40;99.90;;;;;;6209516;23;20161;-95
2022/03/23 09:58:29;;;;;;;1.90;1.20;;;9.40;99.90;;;;;;6174820;23;20524;-94
2022/03/23 10:01:03;;;;;;;3.13;1.27;;;9.40;99.90;;;;;;6174148;23;20177;-95
2022/03/23 10:04:08;;;;;;;2.70;1.40;;;9.40;99.90;;;;;;6197428;23;20247;-95
2022/03/23 10:07:03;;;;;;;1.90;1.13;;;9.40;99.90;;;;;;6205866;23;20188;-96
2022/03/23 10:10:10;;;;;;;1.60;1.03;;;9.40;99.90;;;;;;6210506;23;20196;-95
2022/03/23 10:13:27;;;;;;;2.67;0.93;;;9.40;99.90;;;;;;6196571;23;20650;-96
2022/03/23 10:16:36;;;;;;;2.90;1.07;;;9.50;99.90;;;;;;6197710;23;20516;-96
2022/03/23 10:19:10;;;;;;;1.20;1.10;;;9.60;99.90;;;;;;6197182;23;20177;-94
2022/03/23 10:21:41;;;;;;;2.20;1.20;;;9.70;99.90;;;;;;6196896;23;20570;-96
2022/03/23 10:24:35;;;;;;;1.57;1.20;;;9.70;99.90;;;;;;6197506;23;20184;-96
2022/03/23 10:27:15;;;;;;;1.67;1.30;;;9.80;99.90;;;;;;6195194;23;20288;-95
2022/03/23 10:29:48;;;;;;;2.50;2.03;;;9.90;99.90;;;;;;6197142;23;20184;-95
2022/03/23 10:32:20;;;;;;;2.10;1.27;;;9.90;99.90;;;;;;6194747;23;20255;-95
2022/03/23 10:34:56;;;;;;;1.27;1.10;;;9.90;99.90;;;;;;6196554;23;20161;-94
2022/03/23 10:37:29;;;;;;;3.07;1.23;;;9.90;99.90;;;;;;6195490;23;20196;-95
2022/03/23 10:40:02;;;;;;;1.80;1.40;;;10.00;99.90;;;;;;6194290;23;20224;-94
2022/03/23 10:42:36;;;;;;;2.97;1.30;;;10.10;99.90;;;;;;6193024;23;20224;-95
2022/03/23 10:45:17;;;;;;;3.27;1.33;;;10.10;99.90;;;;;;6194376;23;20165;-95
2022/03/23 10:47:51;;;;;;;2.43;1.50;;;10.10;99.90;;;;;;6199673;23;20173;-96
2022/03/23 10:50:26;;;;;;;1.57;1.20;;;10.20;99.90;;;;;;6167474;23;20192;-94
2022/03/23 10:52:58;;;;;;;1.73;1.23;;;10.20;99.90;;;;;;6192465;23;20196;-94
2022/03/23 10:55:32;;;;;;;1.57;1.17;;;10.20;99.90;;;;;;6193869;23;20209;-94
2022/03/23 10:58:29;;;;;;;1.77;1.20;;;10.20;99.90;;;;;;6191576;23;20176;-94
2022/03/23 11:01:03;;;;;;;4.83;1.43;;;10.20;99.90;;;;;;6196950;23;20165;-95
2022/03/23 11:03:40;;;;;;;1.70;1.30;;;10.20;99.90;;;;;;6195473;23;20188;-93
2022/03/23 11:06:15;;;;;;;1.30;1.20;;;10.20;99.90;;;;;;6193426;23;20187;-94
2022/03/23 11:08:48;;;;;;;2.57;1.13;;;10.20;99.90;;;;;;6194259;23;20184;-95
2022/03/23 11:16:56;;;;;;;3.87;1.03;;;10.20;99.90;;;;;;6193851;23;20248;-95
2022/03/23 11:19:27;;;;;;;1.00;0.87;;;10.20;99.90;;;;;;6192050;23;20176;-94
2022/03/23 11:22:16;;;;;;;1.23;0.90;;;10.20;99.90;;;;;;6193894;23;20180;-95
2022/03/23 11:24:48;;;;;;;0.70;0.70;;;10.20;99.90;;;;;;6192958;23;20178;-94
2022/03/23 11:27:21;;;;;;;0.83;0.80;;;10.20;99.90;;;;;;6194871;23;20800;-95
2022/03/23 11:29:55;;;;;;;2.00;0.87;;;10.20;99.90;;;;;;6193571;23;20235;-94
2022/03/23 11:32:32;;;;;;;1.30;1.10;;;10.20;99.90;;;;;;6193772;23;20632;-96
2022/03/23 11:35:06;;;;;;;0.60;0.60;;;10.20;99.90;;;;;;6194646;23;20177;-95
2022/03/23 11:37:41;;;;;;;3.27;1.23;;;10.20;99.90;;;;;;6195012;23;20165;-96
2022/03/23 11:40:14;;;;;;;0.60;0.60;;;10.20;99.90;;;;;;6196044;23;20616;-95
2022/03/23 11:42:46;;;;;;;1.13;0.90;;;10.20;99.90;;;;;;6170393;23;20228;-95
2022/03/23 11:45:19;;;;;;;3.70;0.77;;;10.20;99.90;;;;;;6167880;23;20176;-95
2022/03/23 11:47:58;;;;;;;0.70;0.70;;;10.30;99.90;;;;;;6194480;23;20185;-94
2022/03/23 11:50:43;;;;;;;1.03;0.70;;;10.30;99.90;;;;;;6194544;23;20588;-95
2022/03/23 11:53:28;;;;;;;1.37;0.83;;;10.30;99.90;;;;;;6171642;23;20532;-95
2022/03/23 11:56:01;;;;;;;1.90;1.40;;;10.30;99.90;;;;;;6169743;23;20164;-96
2022/03/23 11:58:37;;;;;;;1.67;1.30;;;10.20;99.90;;;;;;6192102;23;20178;-95
2022/03/23 12:01:14;;;;;;;1.67;1.37;;;10.30;99.90;;;;;;6194423;23;20173;-94
2022/03/23 12:03:57;;;;;;;2.13;1.30;;;10.20;99.90;;;;;;6194312;23;20184;-95
2022/03/23 12:06:40;;;;;;;1.50;1.30;;;10.20;99.90;;;;;;6196473;23;20608;-96
2022/03/23 12:09:35;;;;;;;2.40;1.27;;;10.30;99.90;;;;;;6196432;23;20516;-96
2022/03/23 12:12:08;;;;;;;1.70;1.30;;;10.40;99.90;;;;;;6196648;22;20213;-94
2022/03/23 12:14:39;;;;;;;3.90;2.00;;;10.80;99.90;;;;;;6210915;23;20188;-93
2022/03/23 12:17:29;;;;;;;3.77;2.33;;;11.10;99.90;;;;;;6210657;23;20161;-95
2022/03/23 12:20:12;;;;;;;3.50;2.30;;;11.50;99.90;;;;;;6208865;23;20169;-94
2022/03/23 12:23:10;;;;;;;2.63;2.17;;;11.70;99.90;;;;;;6208508;23;20200;-91
2022/03/23 12:25:57;;;;;;;4.57;2.63;;;11.90;99.90;;;;;;6199109;23;20177;-94
2022/03/23 12:28:38;;;;;;;5.80;2.93;;;12.10;99.90;;;;;;6195570;23;20223;-96
2022/03/23 12:31:14;;;;;;;5.30;2.80;;;12.10;99.90;;;;;;6195683;23;20255;-94
2022/03/23 12:34:08;;;;;;;4.37;2.87;;;12.10;99.90;;;;;;6194739;23;20183;-93
2022/03/23 12:37:04;;;;;;;3.60;2.60;;;12.10;99.90;;;;;;6210372;23;20192;-95
2022/03/23 12:39:38;;;;;;;3.00;2.20;;;12.20;99.90;;;;;;6210555;23;20535;-94
2022/03/23 12:42:24;;;;;;;3.83;2.53;;;12.20;99.90;;;;;;6205730;23;20208;-95
2022/03/23 12:45:11;;;;;;;3.13;2.63;;;12.20;99.90;;;;;;6197247;23;20177;-95
2022/03/23 12:47:58;;;;;;;2.60;2.13;;;12.20;99.90;;;;;;6197777;23;20176;-96
2022/03/23 12:59:21;;;;;;;5.37;2.97;;;12.10;99.90;;;;;;6205586;23;20204;-95
2022/03/23 13:02:02;;;;;;;4.33;3.20;;;12.10;99.90;;;;;;6168365;23;20263;-94
2022/03/23 13:04:52;;;;;;;4.20;3.57;;;12.00;99.90;;;;;;6193881;23;20177;-96
2022/03/23 13:07:45;;;;;;;3.47;3.17;;;12.00;99.90;;;;;;6168172;23;20191;-94
2022/03/23 13:10:24;;;;;;;5.63;3.57;;;12.00;99.90;;;;;;6198618;23;20208;-93
2022/03/23 13:13:08;;;;;;;5.27;3.37;;;12.00;99.90;;;;;;6209205;23;20168;-94
2022/03/23 13:15:44;;;;;;;6.20;5.30;;;12.00;99.90;;;;;;6186127;23;20177;-95
2022/03/23 13:18:15;;;;;;;4.80;3.90;;;12.00;99.90;;;;;;6186003;23;20217;-94
2022/03/23 13:20:52;;;;;;;5.93;4.30;;;11.90;99.90;;;;;;6210699;23;20161;-94
2022/03/23 13:23:25;;;;;;;5.97;4.03;;;11.90;99.90;;;;;;6202020;23;20204;-93
2022/03/23 13:26:06;;;;;;;6.03;4.83;;;11.90;99.90;;;;;;6192793;23;20177;-95
2022/03/23 13:28:40;;;;;;;6.30;4.73;;;11.90;99.90;;;;;;6192861;23;20183;-95
2022/03/23 13:31:13;;;;;;;6.17;5.57;;;11.80;99.90;;;;;;6193475;23;20169;-95
2022/03/23 13:33:48;;;;;;;7.13;5.00;;;11.80;99.90;;;;;;6193589;23;20188;-96
2022/03/23 13:36:21;;;;;;;6.67;5.93;;;11.80;99.90;;;;;;6206239;23;20169;-95
2022/03/23 13:38:54;;;;;;;6.70;5.50;;;11.80;99.90;;;;;;6210604;23;20201;-96
2022/03/23 13:44:16;;;;;;;6.37;5.77;;;11.80;99.90;;;;;;6209100;23;20188;-95
2022/03/23 13:46:50;;;;;;;6.80;6.00;;;11.80;99.90;;;;;;6210714;23;20173;-95
2022/03/23 13:49:21;;;;;;;7.90;5.77;;;11.80;99.90;;;;;;6210484;23;20192;-94
2022/03/23 13:51:52;;;;;;;8.43;6.53;;;11.80;99.90;;;;;;6211812;23;20231;-94
2022/03/23 13:54:24;;;;;;;7.03;6.10;;;11.80;99.90;;;;;;6211516;23;20208;-94
2022/03/23 13:56:56;;;;;;;6.90;5.87;;;11.80;99.90;;;;;;6210799;23;20173;-95
2022/03/23 13:59:30;;;;;;;8.83;6.87;;;11.80;99.90;;;;;;6203779;23;20193;-94
2022/03/23 14:02:05;;;;;;;7.73;6.30;;;11.80;99.90;;;;;;6145855;23;20207;-94
2022/03/23 14:04:38;;;;;;;7.67;6.73;;;11.80;99.90;;;;;;6195595;23;20199;-95
2022/03/23 14:07:13;;;;;;;7.67;6.83;;;11.70;99.90;;;;;;6171032;23;20252;-94
2022/03/23 14:09:44;;;;;;;8.23;7.30;;;11.70;99.90;;;;;;6196203;23;20179;-94
2022/03/23 14:12:16;;;;;;;9.43;7.77;;;11.70;99.90;;;;;;6195556;23;20827;-94
2022/03/23 14:14:49;;;;;;;10.23;7.33;;;11.60;99.90;;;;;;6202360;23;20509;-94
2022/03/23 14:17:25;;;;;;;8.40;7.60;;;11.60;99.90;;;;;;6194526;23;20187;-93
2022/03/23 14:20:00;;;;;;;8.33;6.47;;;11.60;99.90;;;;;;6171751;23;20204;-93
2022/03/23 14:22:33;;;;;;;6.97;6.23;;;11.60;99.90;;;;;;6175629;23;20674;-96
2022/03/23 14:25:05;;;;;;;6.97;6.27;;;11.60;99.90;;;;;;6195893;23;20176;-95
2022/03/23 14:27:39;;;;;;;16.00;9.80;;;11.60;99.90;;;;;;6206627;23;20169;-94
2022/03/23 14:30:12;;;;;;;6.40;5.50;;;11.60;99.90;;;;;;6213070;23;20225;-95